Aviation Digital Data Service (ADDS)

Output produced by METARs form (2346 UTC 23 May 2022)
found at http://www.aviationweather.gov/metar/data/
 
EHKD 232328Z AUTO 22009KT 190V250 9999 FEW015 BKN050 OVC057 13/11 Q0999 BLU
TAF EHKD 231639Z 2317/2405 33011KT 9999 BKN030 
     TEMPO 2317/2320 4500 RA -SHRA FEW004 SCT020 SCT025CB 
     BECMG 2318/2320 26010KT SCT012 OVC018 
     TEMPO 2318/2405 4500 -DZRA SCT006 BKN009 
     PROB30 
     TEMPO 2319/2321 3000 DZRA BR SCT003 BKN005 
     BECMG 2403/2405 23017KT SCT012 BKN018
       
EHDL 232325Z AUTO 23005KT 180V280 7000 BR FEW007 BKN008 BKN011 13/12 Q1000 GRN
EHGG 232325Z AUTO 25009KT 220V290 9999 FEW009 SCT013 OVC016 13/12 Q0998
TAF EHGG 232309Z 2400/2506 23010KT 9999 BKN012 
     TEMPO 2400/2407 4000 -DZRA BR BKN006 
     BECMG 2406/2409 BKN018 
     TEMPO 2409/2418 24017G27KT 6000 SHRA SCT025CB 
     BECMG 2412/2415 26012KT 
     BECMG 2417/2420 21005KT 
     PROB30 2500/2506 6000
       
EHEH 232336Z AUTO 22010KT 200V260 8000 BR FEW010 SCT013 BKN033 14/13 Q1001 GRN
TAF EHEH 231727Z 2318/2424 27012KT 9000 SCT008 BKN010 
     TEMPO 2318/2319 4500 SHRA SCT006 SCT025CB BKN015 
     BECMG 2318/2320 BKN012 OVC018 
     BECMG 2320/2322 22013KT 
     TEMPO 2320/2401 3500 -DZRA BR SCT008 BKN012 
     BECMG 2401/2403 BKN015 
     TEMPO 2407/2418 SCT020CB BKN025 
     PROB30 
     TEMPO 2413/2418 25015G25KT 3500 SHRA TSRA SCT018CB BKN020 
     BECMG 2415/2418 21005KT SCT025
       
EHGR 232341Z AUTO 21005KT 170V260 7000 BR SCT016 BKN020 OVC029 13/13 Q1001 WHT
EHLW 232337Z AUTO 24011KT 210V270 9999 FEW009 OVC015 13/11 Q0998 WHT
TAF EHLW 232031Z 2321/2409 32011KT 6000 SCT006 BKN008 
     PROB40 
     TEMPO 2321/2404 4000 RA SCT004 OVC008 
     BECMG 2404/2406 23016KT SCT012 BKN018 
     BECMG 2407/2409 BKN025 
     TEMPO 2408/2409 SCT020CB BKN025
       
EHLE 232325Z AUTO 24008KT 9999 FEW009 BKN012 OVC015 13/12 Q1000
TAF EHLE 232310Z 2400/2506 22010KT 9999 SCT012 BKN018 
     TEMPO 2400/2407 7000 -RADZ SCT008 BKN012 
     BECMG 2405/2407 23015KT SCT025 
     TEMPO 2407/2416 25018G28KT 6000 SHRA SCT018CB BKN025 
     BECMG 2415/2418 24007KT
       
EHBK 232325Z AUTO 23010KT 7000 -RADZ FEW007 BKN008 OVC010 14/13 Q1002
TAF EHBK 232310Z 2400/2506 23010KT 6000 BKN008 
     BECMG 2400/2402 9999 FEW030 
     PROB40 
     TEMPO 2402/2407 7000 RA BKN014 
     TEMPO 2410/2419 24017G27KT 6000 SHRA SCT030CB BKN040 
     BECMG 2417/2420 20005KT
       
EHRD 232325Z AUTO 23011KT 190V270 9999 FEW011 SCT014 BKN016 14/12 Q1000 REDZ NOSIG
TAF EHRD 232308Z 2400/2506 23010KT 9999 SCT012 BKN018 
     TEMPO 2400/2405 7000 -RADZ SCT008 BKN012 
     BECMG 2405/2408 25015KT SCT025 
     PROB40 
     TEMPO 2405/2414 25016G26KT 6000 SHRA SCT018CB BKN025 
     BECMG 2415/2418 24007KT
       
EHAM 232325Z 23010KT 9999 FEW006 SCT009 BKN015 13/12 Q1000 NOSIG
TAF EHAM 232308Z 2400/2506 23010KT 9999 SCT012 BKN018 
     TEMPO 2400/2405 7000 -RADZ SCT008 BKN012 
     BECMG 2402/2405 24015KT SCT025 
     PROB40 
     TEMPO 2405/2414 25016G26KT 6000 SHRA SCT018CB BKN025 
     BECMG 2415/2418 24008KT
       
EHVK 232325Z AUTO 22011KT 180V260 6000 BR FEW007 SCT008 BKN009 14/13 Q1001 GRN
TAF EHVK 232020Z 2321/2409 24011KT 9999 FEW006 SCT007 BKN010 
     PROB40 
     TEMPO 2320/2402 4000 -DZRA BR SCT008 OVC012 
     BECMG 2402/2404 SCT020 
     TEMPO 2408/2409 SCT020CB BKN025
       
EHWO 232325Z AUTO 22009KT 190V260 9999 OVC033 14/11 Q1001 BLU
TAF AMD EHWO 231254Z 2312/2321 09005KT CAVOK 
     BECMG 2312/2315 31009KT 
     TEMPO 2312/2319 3000 RA -SHRA SCT012 BKN015 SCT060CB 
     BECMG 2317/2319 BKN012 OVC018 
     PROB40 
     TEMPO 2319/2321 4000 -DZRA SCT006 OVC008